Time;durP1;ratioP1;P1;durP2;ratioP2;P2;SDS_P1;SDS_P2;PMS_P1;PMS_P2;Temp;Humidity;BMP_temperature;BMP_pressure;BME280_temperature;BME280_humidity;BME280_pressure;Samples;Min_cycle;Max_cycle;Signal;HPM_P1;HPM_P2
2021/08/19 00:01:00;;;;;;;;;;;14.30;99.90;;;;;;5101199;28;20395;-64
2021/08/19 00:03:25;;;;;;;23.75;16.23;;;14.30;99.90;;;;;;5102112;28;20415;-64
2021/08/19 00:05:51;;;;;;;;;;;14.40;99.90;;;;;;5095762;28;20047;-65
2021/08/19 00:08:16;;;;;;;25.15;16.02;;;14.40;99.90;;;;;;5096014;28;19916;-64
2021/08/19 00:10:42;;;;;;;;;;;14.40;99.90;;;;;;5102321;28;20052;-64
2021/08/19 00:13:08;;;;;;;29.67;16.25;;;14.30;99.90;;;;;;5102747;28;20053;-63
2021/08/19 00:15:33;;;;;;;;;;;14.30;99.90;;;;;;5099960;28;20028;-64
2021/08/19 00:17:59;;;;;;;23.90;16.73;;;14.40;99.90;;;;;;5094711;28;19923;-64
2021/08/19 00:20:24;;;;;;;;;;;14.30;99.90;;;;;;5089603;28;20044;-63
2021/08/19 00:22:50;;;;;;;24.70;14.60;;;14.40;99.90;;;;;;5089910;28;19916;-63
2021/08/19 00:25:16;;;;;;;;;;;14.40;99.90;;;;;;5088158;28;20044;-63
2021/08/19 00:27:42;;;;;;;25.67;16.00;;;14.30;99.90;;;;;;5088417;28;19915;-64
2021/08/19 00:30:08;;;;;;;22.52;14.82;;;14.40;99.90;;;;;;5089226;28;20123;-64
2021/08/19 00:32:34;;;;;;;23.80;15.15;;;14.40;99.90;;;;;;5088653;28;20048;-64
2021/08/19 00:34:59;;;;;;;;;;;14.40;99.90;;;;;;5085125;28;20107;-64
2021/08/19 00:37:25;;;;;;;22.65;14.80;;;14.40;99.90;;;;;;5083806;28;19963;-64
2021/08/19 00:39:50;;;;;;;;;;;14.40;99.90;;;;;;5087853;28;20042;-64
2021/08/19 00:42:19;;;;;;;25.13;13.30;;;14.40;99.90;;;;;;5088329;28;19916;-63
2021/08/19 00:44:45;;;;;;;20.77;13.70;;;14.30;99.90;;;;;;5088367;28;20518;-63
2021/08/19 00:47:11;;;;;;;21.80;14.30;;;14.30;99.90;;;;;;5087485;28;20071;-62
2021/08/19 00:49:37;;;;;;;;;;;14.30;99.90;;;;;;5087840;28;20047;-63
2021/08/19 00:52:03;;;;;;;21.60;14.07;;;14.30;99.90;;;;;;5088994;28;20604;-64
2021/08/19 00:54:29;;;;;;;18.35;11.32;;;14.30;99.90;;;;;;5088363;28;20043;-63
2021/08/19 00:56:55;;;;;;;;;;;14.30;99.90;;;;;;5088372;28;20067;-64
2021/08/19 00:59:23;;;;;;;25.30;13.00;;;14.30;99.90;;;;;;5067882;28;19927;-63
2021/08/19 01:01:52;;;;;;;19.05;12.55;;;14.30;99.90;;;;;;5066007;28;20056;-64
2021/08/19 01:04:18;;;;;;;19.67;13.00;;;14.20;99.90;;;;;;5068822;28;20520;-63
2021/08/19 01:06:44;;;;;;;;;;;14.30;99.90;;;;;;5067713;28;20049;-63
2021/08/19 01:09:10;;;;;;;18.52;11.40;;;14.30;99.90;;;;;;5085187;28;19923;-63
2021/08/19 01:11:38;;;;;;;;;;;14.30;99.90;;;;;;5089582;28;20051;-64
2021/08/19 01:14:04;;;;;;;20.85;12.55;;;14.20;99.90;;;;;;5086060;28;19916;-64
2021/08/19 01:16:30;;;;;;;19.30;12.68;;;14.20;99.90;;;;;;5070631;28;20042;-64
2021/08/19 01:18:56;;;;;;;16.75;11.20;;;14.20;99.90;;;;;;5088056;28;20040;-64
2021/08/19 01:21:21;;;;;;;;;;;14.30;99.90;;;;;;5088274;28;20593;-63
2021/08/19 01:23:47;;;;;;;18.38;11.82;;;14.30;99.90;;;;;;5086656;28;19971;-64
2021/08/19 01:26:14;;;;;;;;;;;14.30;99.90;;;;;;5087580;28;20935;-64
2021/08/19 01:28:40;;;;;;;20.92;11.60;;;14.30;99.90;;;;;;5087541;28;19974;-64
2021/08/19 01:31:07;;;;;;;19.02;12.85;;;14.30;99.90;;;;;;5086721;28;20036;-63
2021/08/19 01:33:33;;;;;;;22.63;13.23;;;14.30;99.90;;;;;;5087778;28;20039;-64
2021/08/19 01:35:59;;;;;;;23.88;14.13;;;14.30;99.90;;;;;;5087126;28;20036;-64
2021/08/19 01:38:32;;;;;;;;;;;14.40;99.90;;;;;;5083468;28;20047;-64
2021/08/19 01:40:58;;;;;;;23.13;13.93;;;14.40;99.90;;;;;;5087863;28;19951;-64
2021/08/19 01:43:27;;;;;;;24.85;12.85;;;14.30;99.90;;;;;;5088272;28;20036;-64
2021/08/19 01:46:07;;;;;;;20.10;12.30;;;14.40;99.90;;;;;;5086499;28;20052;-64
2021/08/19 01:48:34;;;;;;;19.23;13.07;;;14.40;99.90;;;;;;5087314;28;20150;-64
2021/08/19 01:50:59;;;;;;;20.17;13.13;;;14.40;99.90;;;;;;5087205;28;20484;-65
2021/08/19 01:53:25;;;;;;;;;;;14.40;99.90;;;;;;5087965;28;20085;-64
2021/08/19 01:56:00;;;;;;;20.58;12.60;;;14.30;99.90;;;;;;5086330;28;20396;-64
2021/08/19 01:58:26;;;;;;;19.45;13.48;;;14.30;99.90;;;;;;5086462;28;20063;-64
2021/08/19 02:00:53;;;;;;;20.10;12.65;;;14.40;99.90;;;;;;5086757;28;20110;-64
2021/08/19 02:03:18;;;;;;;21.55;14.10;;;14.40;99.90;;;;;;5086891;28;20075;-64
2021/08/19 02:05:48;;;;;;;;;;;14.40;99.90;;;;;;5086804;28;20095;-64
2021/08/19 02:08:14;;;;;;;20.58;12.80;;;14.40;99.90;;;;;;5082856;28;19916;-64
2021/08/19 02:10:39;;;;;;;;;;;14.40;99.90;;;;;;5087107;28;20118;-64
2021/08/19 02:13:05;;;;;;;18.90;12.27;;;14.40;99.90;;;;;;5087245;28;20359;-64
2021/08/19 02:15:32;;;;;;;20.50;13.13;;;14.30;99.90;;;;;;5086398;28;20463;-65
2021/08/19 02:17:57;;;;;;;24.27;15.23;;;14.40;99.90;;;;;;5086487;28;20461;-63
2021/08/19 02:20:23;;;;;;;;;;;14.40;99.90;;;;;;5087267;28;20052;-65
2021/08/19 02:22:49;;;;;;;17.95;11.27;;;14.40;99.90;;;;;;5087236;28;19920;-64
2021/08/19 02:25:14;;;;;;;;;;;14.50;99.90;;;;;;5086607;28;20040;-64
2021/08/19 02:27:41;;;;;;;22.08;13.35;;;14.50;99.90;;;;;;5086229;28;20361;-64
2021/08/19 02:30:07;;;;;;;23.45;14.77;;;14.40;99.90;;;;;;5086970;28;20123;-64
2021/08/19 02:32:33;;;;;;;31.67;22.60;;;14.40;99.90;;;;;;5086325;28;20079;-64
2021/08/19 02:34:59;;;;;;;;;;;14.40;99.90;;;;;;5085659;28;20449;-64
2021/08/19 02:37:25;;;;;;;24.17;15.27;;;14.40;99.90;;;;;;5081939;28;19947;-65
2021/08/19 02:39:50;;;;;;;24.02;14.57;;;14.40;99.90;;;;;;5085498;28;20032;-65
2021/08/19 02:42:16;;;;;;;;;;;14.40;99.90;;;;;;5083472;28;20511;-64
2021/08/19 02:44:42;;;;;;;17.67;12.15;;;14.30;99.90;;;;;;5086945;28;20003;-64
2021/08/19 02:47:07;;;;;;;;;;;14.30;99.90;;;;;;5086718;28;20303;-64
2021/08/19 02:49:33;;;;;;;20.30;12.52;;;14.30;99.90;;;;;;5086868;28;19959;-64
2021/08/19 02:51:59;;;;;;;;;;;14.20;99.90;;;;;;5086460;28;20036;-64
2021/08/19 02:54:25;;;;;;;16.35;10.68;;;14.20;99.90;;;;;;5086592;28;19969;-64
2021/08/19 02:56:50;;;;;;;;;;;14.30;99.90;;;;;;5087614;28;20115;-64
2021/08/19 02:59:16;;;;;;;16.77;10.57;;;14.30;99.90;;;;;;5087209;28;20003;-64
2021/08/19 03:01:41;;;;;;;;;;;14.20;99.90;;;;;;5086708;28;20036;-64
2021/08/19 03:04:07;;;;;;;14.77;10.15;;;14.30;99.90;;;;;;5086889;28;20403;-64
2021/08/19 03:06:32;;;;;;;;;;;14.30;99.90;;;;;;5086374;28;20071;-64
2021/08/19 03:08:58;;;;;;;16.98;10.63;;;14.30;99.90;;;;;;5082161;28;20065;-65
2021/08/19 03:11:24;;;;;;;;;;;14.30;99.90;;;;;;5086821;28;20598;-64
2021/08/19 03:13:49;;;;;;;21.08;13.48;;;14.30;99.90;;;;;;5086759;28;19968;-64
2021/08/19 03:16:15;;;;;;;;;;;14.30;99.90;;;;;;5086281;28;20093;-64
2021/08/19 03:18:42;;;;;;;18.10;12.05;;;14.30;99.90;;;;;;5085847;28;19923;-64
2021/08/19 03:21:08;;;;;;;26.90;14.15;;;14.30;99.90;;;;;;5085692;28;20051;-64
2021/08/19 03:23:33;;;;;;;;;;;14.30;99.90;;;;;;5087168;28;20395;-64
2021/08/19 03:25:59;;;;;;;23.35;13.85;;;14.30;99.90;;;;;;5085592;28;19930;-65
2021/08/19 03:28:24;;;;;;;;;;;14.30;99.90;;;;;;5086442;28;20127;-64
2021/08/19 03:30:50;;;;;;;17.40;11.55;;;14.30;99.90;;;;;;5086246;28;19994;-67
2021/08/19 03:33:18;;;;;;;;;;;14.30;99.90;;;;;;5085938;28;20063;-65
2021/08/19 03:35:45;;;;;;;20.58;13.43;;;14.30;99.90;;;;;;5084932;28;19919;-63
2021/08/19 03:38:10;;;;;;;22.38;12.68;;;14.30;99.90;;;;;;5081494;28;20118;-64
2021/08/19 03:40:36;;;;;;;;;;;14.30;99.90;;;;;;5086325;28;20547;-64
2021/08/19 03:43:02;;;;;;;21.08;12.27;;;14.30;99.90;;;;;;5085690;28;19985;-63
2021/08/19 03:45:28;;;;;;;;;;;14.30;99.90;;;;;;5084997;28;20048;-64
2021/08/19 03:47:54;;;;;;;21.30;13.38;;;14.30;99.90;;;;;;5084086;28;19962;-65
2021/08/19 03:50:20;;;;;;;;;;;14.30;99.90;;;;;;5083364;28;20117;-65
2021/08/19 03:52:46;;;;;;;23.45;13.38;;;14.40;99.90;;;;;;5080380;28;20237;-65
2021/08/19 03:55:11;;;;;;;;;;;14.40;99.90;;;;;;5089165;28;20040;-65
2021/08/19 03:57:37;;;;;;;21.85;13.52;;;14.40;99.90;;;;;;5083852;28;19936;-63
2021/08/19 04:00:04;;;;;;;;;;;14.40;99.90;;;;;;5068862;28;20062;-63
2021/08/19 04:02:29;;;;;;;19.30;12.90;;;14.40;99.90;;;;;;5068433;28;19924;-64
2021/08/19 04:04:55;;;;;;;;;;;14.40;99.90;;;;;;5069938;28;20043;-64
2021/08/19 04:07:21;;;;;;;21.85;12.43;;;14.40;99.90;;;;;;5074043;28;19927;-63
2021/08/19 04:09:47;;;;;;;;;;;14.50;99.90;;;;;;5089281;28;20652;-63
2021/08/19 04:12:12;;;;;;;18.58;11.82;;;14.40;99.90;;;;;;5079847;28;19913;-63
2021/08/19 04:14:38;;;;;;;;;;;14.50;99.90;;;;;;5081833;28;20036;-63
2021/08/19 04:17:03;;;;;;;17.98;11.70;;;14.50;99.90;;;;;;5080729;28;19955;-64
2021/08/19 04:19:29;;;;;;;;;;;14.40;99.90;;;;;;5077115;28;20037;-63
2021/08/19 04:21:54;;;;;;;19.58;11.40;;;14.40;99.90;;;;;;5076697;28;19913;-63
2021/08/19 04:24:20;;;;;;;;;;;14.50;99.90;;;;;;5081781;28;20044;-63
2021/08/19 04:26:45;;;;;;;18.83;11.25;;;14.40;99.90;;;;;;5078578;28;19926;-63
2021/08/19 04:29:11;;;;;;;;;;;14.40;99.90;;;;;;5081811;28;20041;-64
2021/08/19 04:31:37;;;;;;;18.38;11.48;;;14.40;99.90;;;;;;5074160;28;19962;-64
2021/08/19 04:34:03;;;;;;;;;;;14.40;99.90;;;;;;5077523;28;20032;-63
2021/08/19 04:36:30;;;;;;;15.70;10.23;;;14.50;99.90;;;;;;5079117;28;19916;-63
2021/08/19 04:38:56;;;;;;;15.20;9.52;;;14.50;99.90;;;;;;5083967;28;20032;-63
2021/08/19 04:41:21;;;;;;;;;;;14.50;99.90;;;;;;5088063;28;20036;-64
2021/08/19 04:43:47;;;;;;;14.55;9.63;;;14.50;99.90;;;;;;5088628;28;19995;-64
2021/08/19 04:46:13;;;;;;;;;;;14.50;99.90;;;;;;5087782;28;20051;-64
2021/08/19 04:48:38;;;;;;;15.25;9.18;;;14.50;99.90;;;;;;5085842;28;19916;-64
2021/08/19 04:51:04;;;;;;;12.07;8.40;;;14.50;99.90;;;;;;5089934;28;20590;-63
2021/08/19 04:53:30;;;;;;;13.15;9.10;;;14.50;99.90;;;;;;5085526;28;20085;-64
2021/08/19 04:55:55;;;;;;;;;;;14.50;99.90;;;;;;5089497;28;20068;-63
2021/08/19 05:00:56;;;;;;;15.30;10.38;;;14.60;99.90;;;;;;5081398;22;20044;-64
2021/08/19 05:03:21;;;;;;;;;;;14.50;99.90;;;;;;5065223;28;20048;-64
2021/08/19 05:05:47;;;;;;;15.82;8.98;;;14.50;99.90;;;;;;5068063;28;19920;-65
2021/08/19 05:08:13;;;;;;;;;;;14.50;99.90;;;;;;5067724;28;20090;-69
2021/08/19 05:10:38;;;;;;;12.95;8.98;;;14.50;99.90;;;;;;5069006;28;19977;-64
2021/08/19 05:13:04;;;;;;;;;;;14.60;99.90;;;;;;5069491;28;20763;-67
2021/08/19 05:15:30;;;;;;;11.68;6.85;;;14.60;99.90;;;;;;5068414;28;19912;-66
2021/08/19 05:17:55;;;;;;;;;;;14.60;99.90;;;;;;5060027;28;20041;-64
2021/08/19 05:20:21;;;;;;;11.15;6.80;;;14.60;99.90;;;;;;5048163;28;19920;-62
2021/08/19 05:22:47;;;;;;;;;;;14.60;99.90;;;;;;5055188;28;20039;-63
2021/08/19 05:25:12;;;;;;;12.20;7.35;;;14.60;99.90;;;;;;5068363;28;20422;-64
2021/08/19 05:27:38;;;;;;;;;;;14.60;99.90;;;;;;5068915;28;20040;-64
2021/08/19 05:30:04;;;;;;;10.88;7.90;;;14.60;99.90;;;;;;5066391;28;20406;-66
2021/08/19 05:32:30;;;;;;;13.70;8.38;;;14.60;99.90;;;;;;5066842;28;20119;-66
2021/08/19 05:34:56;;;;;;;;;;;14.70;99.90;;;;;;5068733;28;20502;-64
2021/08/19 05:37:22;;;;;;;17.88;9.57;;;14.60;99.90;;;;;;5068229;28;20341;-63
2021/08/19 05:39:48;;;;;;;;;;;14.70;99.90;;;;;;5067566;28;20040;-64
2021/08/19 05:42:13;;;;;;;15.68;9.30;;;14.70;99.90;;;;;;5067999;28;20020;-64
2021/08/19 05:44:39;;;;;;;;;;;14.70;99.90;;;;;;5069182;28;20032;-65
2021/08/19 05:47:05;;;;;;;12.55;7.45;;;14.70;99.90;;;;;;5059155;28;19920;-65
2021/08/19 05:49:34;;;;;;;14.88;9.15;;;14.70;99.90;;;;;;5023558;28;20067;-65
2021/08/19 05:52:00;;;;;;;10.93;7.75;;;14.70;99.90;;;;;;5061179;28;20078;-65
2021/08/19 05:54:26;;;;;;;;;;;14.70;99.90;;;;;;5069064;28;20055;-65
2021/08/19 05:56:51;;;;;;;11.23;6.63;;;14.70;99.90;;;;;;5069240;28;20417;-65
2021/08/19 05:59:17;;;;;;;;;;;14.70;99.90;;;;;;5047603;28;20036;-64
2021/08/19 06:01:42;;;;;;;12.27;7.22;;;14.70;99.90;;;;;;5044275;28;19928;-64
2021/08/19 06:04:08;;;;;;;;;;;14.70;99.90;;;;;;5018155;28;20048;-62
2021/08/19 06:06:33;;;;;;;10.32;6.80;;;14.80;99.90;;;;;;5048441;28;19925;-64
2021/08/19 06:08:59;;;;;;;;;;;14.70;99.90;;;;;;5048154;28;20757;-64
2021/08/19 06:11:24;;;;;;;12.02;7.25;;;14.70;99.90;;;;;;5048692;28;19920;-64
2021/08/19 06:13:50;;;;;;;;;;;14.80;99.90;;;;;;5049191;28;20041;-64
2021/08/19 06:16:16;;;;;;;9.50;6.20;;;14.80;99.90;;;;;;5056526;28;19917;-64
2021/08/19 06:18:41;;;;;;;;;;;14.80;99.90;;;;;;5068040;28;20462;-65
2021/08/19 06:21:07;;;;;;;7.40;4.90;;;14.70;99.90;;;;;;5068276;28;19996;-64
2021/08/19 06:23:32;;;;;;;;;;;14.80;99.90;;;;;;5064303;28;20395;-64
2021/08/19 06:25:58;;;;;;;11.38;6.82;;;14.70;99.90;;;;;;5066415;28;19920;-64
2021/08/19 06:28:26;;;;;;;;;;;14.70;99.90;;;;;;5065458;28;20032;-63
2021/08/19 06:30:53;;;;;;;13.27;7.00;;;14.70;99.90;;;;;;5064958;28;19912;-63
2021/08/19 06:33:19;;;;;;;11.68;6.00;;;14.70;99.90;;;;;;5066907;28;20115;-63
2021/08/19 06:35:44;;;;;;;;;;;14.80;99.90;;;;;;5066052;28;20155;-63
2021/08/19 06:38:10;;;;;;;10.80;5.75;;;14.70;99.90;;;;;;5046101;28;19978;-64
2021/08/19 06:40:35;;;;;;;;;;;14.70;99.90;;;;;;5060546;28;20029;-64
2021/08/19 06:43:01;;;;;;;12.07;7.88;;;14.70;99.90;;;;;;5065269;28;20414;-64
2021/08/19 06:45:27;;;;;;;;;;;14.80;99.90;;;;;;5064026;28;20060;-64
2021/08/19 06:47:52;;;;;;;15.68;9.13;;;14.80;99.90;;;;;;5060339;28;19916;-64
2021/08/19 06:50:18;;;;;;;10.98;6.57;;;14.80;99.90;;;;;;5059410;28;20036;-65
2021/08/19 06:52:44;;;;;;;;;;;14.90;99.90;;;;;;5066727;28;20045;-65
2021/08/19 06:55:10;;;;;;;13.07;7.15;;;14.90;99.90;;;;;;5056341;28;19916;-64
2021/08/19 06:57:36;;;;;;;12.07;7.45;;;14.90;99.90;;;;;;5070095;28;20049;-64
2021/08/19 07:00:04;;;;;;;;;;;14.80;99.90;;;;;;5060561;28;20063;-65
2021/08/19 07:02:29;;;;;;;21.02;8.23;;;14.80;99.90;;;;;;5066080;28;19923;-66
2021/08/19 07:04:55;;;;;;;;;;;14.80;99.90;;;;;;5060213;28;20061;-64
2021/08/19 07:07:21;;;;;;;15.13;7.00;;;14.90;99.90;;;;;;5065453;28;20594;-65
2021/08/19 07:09:46;;;;;;;;;;;14.80;99.90;;;;;;5062949;28;20380;-65
2021/08/19 07:12:11;;;;;;;14.68;7.80;;;14.90;99.90;;;;;;5060376;28;20394;-64
2021/08/19 07:14:37;;;;;;;;;;;14.90;99.90;;;;;;5063028;28;20411;-64
2021/08/19 07:17:03;;;;;;;14.00;8.30;;;15.00;99.90;;;;;;5040208;28;19994;-64
2021/08/19 07:19:28;;;;;;;21.35;9.30;;;15.00;99.90;;;;;;5041593;28;20037;-64
2021/08/19 07:21:54;;;;;;;;;;;15.00;99.90;;;;;;5040579;28;20032;-63
2021/08/19 07:24:20;;;;;;;14.63;7.95;;;15.00;99.90;;;;;;5044700;28;19920;-66
2021/08/19 07:26:45;;;;;;;;;;;15.00;99.90;;;;;;5037590;28;20052;-63
2021/08/19 07:29:11;;;;;;;14.77;7.65;;;15.10;99.90;;;;;;5040737;28;20425;-66
2021/08/19 07:31:39;;;;;;;13.40;7.38;;;15.20;99.90;;;;;;5024274;28;20174;-63
2021/08/19 07:34:06;;;;;;;15.40;8.18;;;15.10;99.90;;;;;;5062343;28;20078;-64
2021/08/19 07:36:32;;;;;;;15.90;7.93;;;15.10;99.90;;;;;;5064294;28;20068;-64
2021/08/19 07:39:03;;;;;;;13.40;7.32;;;15.10;99.90;;;;;;5069325;28;20511;-64
2021/08/19 07:41:28;;;;;;;12.23;7.75;;;15.10;99.90;;;;;;5036616;28;20037;-64
2021/08/19 07:43:54;;;;;;;;;;;15.10;99.90;;;;;;5067080;28;20041;-64
2021/08/19 07:46:19;;;;;;;11.55;6.93;;;15.10;99.90;;;;;;5055103;28;19920;-64
2021/08/19 07:48:45;;;;;;;;;;;15.10;99.90;;;;;;5050229;28;20124;-64
2021/08/19 07:51:10;;;;;;;13.98;7.35;;;15.20;99.90;;;;;;5050276;28;19924;-64
2021/08/19 07:53:36;;;;;;;17.40;8.10;;;15.10;99.90;;;;;;5050721;28;20488;-64
2021/08/19 07:56:01;;;;;;;;;;;15.20;99.90;;;;;;5046525;28;20033;-66
2021/08/19 07:58:27;;;;;;;18.30;8.18;;;15.20;99.90;;;;;;5049243;28;19917;-64
2021/08/19 08:00:53;;;;;;;;;;;15.30;99.90;;;;;;5056784;28;20047;-65
2021/08/19 08:03:19;;;;;;;19.10;11.75;;;15.30;99.90;;;;;;5058142;28;19981;-65
2021/08/19 08:05:45;;;;;;;;;;;15.30;99.90;;;;;;5051211;28;20459;-64
2021/08/19 08:08:11;;;;;;;18.15;10.15;;;15.30;99.90;;;;;;5049858;28;20027;-64
2021/08/19 08:10:38;;;;;;;18.30;9.48;;;15.30;99.90;;;;;;5018242;28;20095;-64
2021/08/19 08:13:06;;;;;;;12.00;7.85;;;15.30;99.90;;;;;;5050343;22;20041;-65
2021/08/19 08:15:35;;;;;;;17.08;10.30;;;15.30;99.90;;;;;;5039088;28;20062;-63
2021/08/19 08:18:02;;;;;;;18.92;10.30;;;15.30;99.90;;;;;;5023573;28;20497;-66
2021/08/19 08:20:28;;;;;;;16.00;9.73;;;15.30;99.90;;;;;;5019883;28;20046;-65
2021/08/19 08:22:54;;;;;;;;;;;15.20;99.90;;;;;;5019487;28;20138;-67
2021/08/19 08:25:20;;;;;;;22.30;9.25;;;15.20;99.90;;;;;;4993331;28;19918;-65
2021/08/19 08:28:11;;;;;;;16.98;9.52;;;15.30;99.90;;;;;;5010355;28;20046;-65
2021/08/19 08:30:42;;;;;;;15.73;8.63;;;15.30;99.90;;;;;;5017387;28;20041;-64
2021/08/19 08:33:08;;;;;;;10.68;7.25;;;15.30;99.90;;;;;;5029405;28;20045;-64
2021/08/19 08:35:37;;;;;;;12.35;7.60;;;15.30;99.90;;;;;;5029551;28;20076;-64
2021/08/19 08:38:08;;;;;;;15.75;9.07;;;15.30;99.90;;;;;;5030478;28;20052;-64
2021/08/19 08:40:36;;;;;;;16.45;8.68;;;15.30;99.90;;;;;;5031212;28;20103;-64
2021/08/19 08:43:04;;;;;;;17.70;7.90;;;15.30;99.90;;;;;;5030852;28;20584;-65
2021/08/19 08:45:34;;;;;;;12.02;7.65;;;15.40;99.90;;;;;;5030389;28;20124;-62
2021/08/19 08:48:05;;;;;;;11.35;7.00;;;15.40;99.90;;;;;;5014357;28;20044;-64
2021/08/19 08:50:32;;;;;;;12.32;6.88;;;15.40;99.90;;;;;;5031188;28;20049;-61
2021/08/19 08:52:59;;;;;;;10.65;6.85;;;15.40;99.90;;;;;;5012981;28;20132;-63
2021/08/19 08:55:25;;;;;;;10.02;6.65;;;15.40;99.90;;;;;;5031287;28;20069;-63
2021/08/19 08:57:52;;;;;;;12.25;6.80;;;15.30;99.90;;;;;;5012343;28;20099;-62
2021/08/19 09:00:18;;;;;;;9.20;5.70;;;15.30;99.90;;;;;;5030537;28;20447;-62
2021/08/19 09:02:44;;;;;;;;;;;15.40;99.90;;;;;;5042368;28;20048;-62
2021/08/19 09:05:22;;;;;;;9.65;6.05;;;15.40;99.90;;;;;;5050327;28;20392;-65
2021/08/19 09:08:00;;;;;;;11.38;5.97;;;15.30;99.90;;;;;;5049697;28;20045;-64
2021/08/19 09:10:35;;;;;;;10.63;7.03;;;15.30;99.90;;;;;;5049748;28;20051;-62
2021/08/19 09:13:09;;;;;;;8.45;5.68;;;15.40;99.90;;;;;;5050206;28;20068;-63
2021/08/19 09:15:35;;;;;;;10.18;6.53;;;15.30;99.90;;;;;;5049438;28;20045;-65
2021/08/19 09:18:02;;;;;;;;;;;15.30;99.90;;;;;;5039190;28;20043;-64
2021/08/19 09:20:35;;;;;;;;;;;15.30;99.90;;;;;;5030478;28;20000;-65
2021/08/19 09:23:05;;;;;;;10.40;7.15;;;15.30;99.90;;;;;;5039614;28;19920;-68
2021/08/19 09:25:39;;;;;;;13.05;8.98;;;15.40;99.90;;;;;;5044905;28;20106;-63
2021/08/19 09:28:18;;;;;;;15.60;8.80;;;15.30;99.90;;;;;;5046363;28;20087;-63
2021/08/19 09:30:51;;;;;;;12.35;8.38;;;15.40;99.90;;;;;;5045214;28;20037;-62
2021/08/19 09:33:19;;;;;;;16.48;9.50;;;15.40;99.90;;;;;;5047854;28;20073;-64
2021/08/19 09:35:47;;;;;;;14.65;9.38;;;15.50;99.90;;;;;;5041224;28;20052;-63
2021/08/19 09:38:19;;;;;;;17.38;9.65;;;15.50;99.90;;;;;;5047610;28;20040;-65
2021/08/19 09:41:02;;;;;;;20.40;11.10;;;15.50;99.90;;;;;;5049817;28;20068;-63
2021/08/19 09:43:51;;;;;;;17.52;10.05;;;15.50;99.90;;;;;;5048978;28;20045;-63
2021/08/19 09:46:34;;;;;;;14.20;9.40;;;15.60;99.90;;;;;;5038904;28;20060;-64
2021/08/19 09:49:22;;;;;;;17.05;9.02;;;15.60;99.90;;;;;;5008790;28;20041;-63
2021/08/19 09:52:07;;;;;;;15.40;9.10;;;15.70;99.90;;;;;;5020917;28;20052;-66
2021/08/19 09:54:43;;;;;;;16.17;9.85;;;15.70;99.90;;;;;;5024826;28;20104;-64
2021/08/19 09:57:10;;;;;;;13.38;8.73;;;15.80;99.90;;;;;;5028308;28;20643;-62
2021/08/19 09:59:39;;;;;;;14.35;9.23;;;15.80;99.90;;;;;;5008828;28;20045;-64
2021/08/19 10:02:06;;;;;;;17.88;10.52;;;15.90;99.90;;;;;;5027305;28;20056;-61
2021/08/19 10:04:32;;;;;;;17.13;9.70;;;15.80;99.90;;;;;;5010445;28;20037;-62
2021/08/19 10:06:59;;;;;;;17.48;9.75;;;15.80;99.90;;;;;;5021500;28;20045;-63
2021/08/19 10:09:26;;;;;;;14.68;9.52;;;15.80;99.90;;;;;;5026857;28;20045;-63
2021/08/19 10:11:54;;;;;;;16.90;10.15;;;15.70;99.90;;;;;;5028689;28;20397;-62
2021/08/19 10:14:28;;;;;;;15.50;9.45;;;15.70;99.90;;;;;;5029014;28;20045;-62
2021/08/19 10:16:55;;;;;;;17.60;10.65;;;15.70;99.90;;;;;;5055755;28;20055;-60
2021/08/19 10:19:36;;;;;;;14.40;8.95;;;15.60;99.90;;;;;;5047457;28;20048;-62
2021/08/19 10:22:18;;;;;;;16.90;9.70;;;15.70;99.90;;;;;;5048009;28;20072;-62
2021/08/19 10:24:53;;;;;;;15.60;10.05;;;15.60;99.90;;;;;;5049624;28;20048;-61
2021/08/19 10:27:22;;;;;;;18.77;11.18;;;15.70;99.90;;;;;;5058228;28;20442;-62
2021/08/19 10:29:52;;;;;;;14.68;8.90;;;15.60;99.90;;;;;;5054719;28;20107;-61
2021/08/19 10:32:31;;;;;;;13.57;8.98;;;15.60;99.90;;;;;;5061674;28;20052;-62
2021/08/19 10:35:00;;;;;;;16.50;9.93;;;15.60;99.90;;;;;;5065478;28;20052;-61
2021/08/19 10:37:44;;;;;;;20.83;11.10;;;15.60;99.90;;;;;;5065875;28;20835;-62
2021/08/19 10:40:19;;;;;;;18.08;10.82;;;15.60;99.90;;;;;;5067375;28;20029;-61
2021/08/19 10:42:48;;;;;;;20.15;11.18;;;15.60;99.90;;;;;;5068239;28;20439;-60
2021/08/19 10:45:26;;;;;;;16.92;10.68;;;15.50;99.90;;;;;;5060647;28;20504;-62
2021/08/19 10:48:08;;;;;;;16.10;10.40;;;15.50;99.90;;;;;;5061056;28;20044;-61
2021/08/19 10:50:39;;;;;;;17.77;10.98;;;15.50;99.90;;;;;;5058884;28;20119;-61
2021/08/19 10:53:16;;;;;;;14.65;9.73;;;15.50;99.90;;;;;;5067916;28;20068;-61
2021/08/19 10:55:43;;;;;;;20.02;11.13;;;15.60;99.90;;;;;;5056523;28;20113;-61
2021/08/19 10:58:23;;;;;;;15.52;9.45;;;15.70;99.90;;;;;;5055503;28;20499;-66
2021/08/19 11:00:49;;;;;;;16.55;10.85;;;15.80;99.90;;;;;;5058002;28;20039;-63
2021/08/19 11:03:34;;;;;;;13.75;9.48;;;15.80;99.90;;;;;;5059602;28;20040;-60
2021/08/19 11:06:00;;;;;;;19.63;10.35;;;16.00;99.90;;;;;;5056679;28;20129;-59
2021/08/19 11:08:39;;;;;;;;;;;16.00;99.90;;;;;;5067348;28;20504;-63
2021/08/19 11:11:05;;;;;;;17.23;11.18;;;16.00;99.90;;;;;;5067985;28;20428;-64
2021/08/19 11:13:34;;;;;;;15.70;11.43;;;16.00;99.90;;;;;;5067364;28;20045;-61
2021/08/19 11:16:00;;;;;;;19.30;10.98;;;16.00;99.90;;;;;;5049745;28;20040;-58
2021/08/19 11:18:28;;;;;;;16.65;10.30;;;15.90;99.90;;;;;;5052692;28;20539;-58
2021/08/19 11:20:54;;;;;;;16.90;11.48;;;15.90;99.90;;;;;;5048758;28;20060;-62
2021/08/19 11:23:26;;;;;;;;;;;15.90;99.90;;;;;;5048570;28;20524;-61
2021/08/19 11:25:58;;;;;;;17.90;11.57;;;15.80;99.90;;;;;;5048166;28;19917;-61
2021/08/19 11:28:24;;;;;;;26.23;15.48;;;15.70;99.90;;;;;;5047042;28;20052;-60
2021/08/19 11:30:50;;;;;;;;;;;15.70;99.90;;;;;;5060424;28;20033;-60
2021/08/19 11:33:19;;;;;;;17.70;11.43;;;15.60;99.90;;;;;;5060409;28;20602;-61
2021/08/19 11:35:46;;;;;;;20.30;12.02;;;15.60;99.90;;;;;;5067615;28;20040;-61
2021/08/19 11:38:18;;;;;;;17.58;11.20;;;15.50;99.90;;;;;;5067334;28;20630;-60
2021/08/19 11:40:46;;;;;;;19.30;11.43;;;15.50;99.90;;;;;;5067933;28;20037;-60
2021/08/19 11:43:38;;;;;;;22.33;13.32;;;15.50;99.90;;;;;;5067431;28;20062;-60
2021/08/19 11:46:05;;;;;;;19.63;12.60;;;15.50;99.90;;;;;;5063577;28;20451;-61
2021/08/19 11:48:31;;;;;;;21.05;13.00;;;15.50;99.90;;;;;;5066641;28;20524;-61
2021/08/19 11:51:00;;;;;;;21.40;13.52;;;15.60;99.90;;;;;;5067418;28;20044;-61
2021/08/19 11:53:26;;;;;;;25.35;13.63;;;15.60;99.90;;;;;;5067762;28;20097;-61
2021/08/19 11:55:52;;;;;;;;;;;15.70;99.90;;;;;;5067859;28;20044;-62
2021/08/19 11:58:25;;;;;;;21.50;12.75;;;15.70;99.90;;;;;;5055413;28;20015;-61
2021/08/19 12:01:08;;;;;;;25.88;15.35;;;15.70;99.90;;;;;;5056270;28;20035;-60
2021/08/19 12:03:39;;;;;;;24.13;15.05;;;15.60;99.90;;;;;;5061920;28;20048;-62
2021/08/19 12:06:18;;;;;;;21.67;14.38;;;15.60;99.90;;;;;;5067573;28;20128;-62
2021/08/19 12:08:49;;;;;;;22.27;13.27;;;15.70;99.90;;;;;;5065450;28;20043;-57
2021/08/19 12:11:18;;;;;;;22.65;14.10;;;15.60;99.90;;;;;;5067462;28;20749;-61
2021/08/19 12:13:44;;;;;;;21.77;14.35;;;15.70;99.90;;;;;;5068141;28;20041;-60
2021/08/19 12:16:11;;;;;;;30.58;17.52;;;15.70;99.90;;;;;;5061920;28;20048;-59
2021/08/19 12:18:37;;;;;;;24.15;15.18;;;15.70;99.90;;;;;;5054493;28;20128;-61
2021/08/19 12:21:16;;;;;;;;;;;15.80;99.90;;;;;;5051394;28;20171;-61
2021/08/19 12:23:42;;;;;;;20.63;14.07;;;15.80;99.90;;;;;;5050573;28;19921;-61
2021/08/19 12:26:10;;;;;;;25.05;15.05;;;15.80;99.90;;;;;;5052562;28;20048;-60
2021/08/19 12:28:36;;;;;;;26.50;14.90;;;16.00;99.90;;;;;;5040825;28;20044;-61
2021/08/19 12:31:07;;;;;;;21.73;14.77;;;16.00;99.90;;;;;;5060121;28;20079;-61
2021/08/19 12:33:37;;;;;;;24.48;15.52;;;16.10;99.90;;;;;;5065571;28;20041;-61
2021/08/19 12:36:17;;;;;;;26.30;15.95;;;16.10;99.90;;;;;;5070158;28;20185;-58
2021/08/19 12:38:44;;;;;;;24.73;14.85;;;16.10;99.90;;;;;;5069638;28;20124;-59
2021/08/19 12:41:34;;;;;;;23.17;14.88;;;16.20;99.90;;;;;;5070351;28;20702;-58
2021/08/19 12:44:05;;;;;;;26.42;15.82;;;16.20;99.90;;;;;;5070208;28;20036;-59
2021/08/19 12:46:42;;;;;;;22.85;15.18;;;16.20;99.90;;;;;;5069150;28;20047;-60
2021/08/19 12:49:26;;;;;;;;;;;16.10;99.90;;;;;;5051669;28;20090;-61
2021/08/19 12:52:10;;;;;;;24.25;15.63;;;16.20;99.90;;;;;;5070617;28;20337;-60
2021/08/19 12:54:36;;;;;;;26.13;16.27;;;16.10;99.90;;;;;;5070514;28;20385;-62
2021/08/19 12:57:02;;;;;;;;;;;16.10;99.90;;;;;;5069687;28;20051;-59
2021/08/19 12:59:27;;;;;;;28.67;16.58;;;16.00;99.90;;;;;;5050089;28;20568;-61
2021/08/19 13:01:54;;;;;;;;;;;16.00;99.90;;;;;;5059725;28;20045;-62
2021/08/19 13:04:19;;;;;;;23.23;15.13;;;15.90;99.90;;;;;;5069908;28;20021;-62
2021/08/19 13:06:45;;;;;;;;;;;15.90;99.90;;;;;;5070093;28;20103;-58